Time;durP1;ratioP1;P1;durP2;ratioP2;P2;SDS_P1;SDS_P2;PMS_P1;PMS_P2;Temp;Humidity;BMP_temperature;BMP_pressure;BME280_temperature;BME280_humidity;BME280_pressure;Samples;Min_cycle;Max_cycle;Signal;HPM_P1;HPM_P2
2021/10/18 00:02:00;;;;;;;23.85;14.93;;;9.30;99.90;;;;;;5022490;28;20213;-84
2021/10/18 00:04:28;;;;;;;26.05;15.52;;;9.30;99.90;;;;;;5022262;28;20217;-85
2021/10/18 00:06:54;;;;;;;33.80;15.00;;;9.20;99.90;;;;;;5022009;28;20268;-85
2021/10/18 00:09:21;;;;;;;25.77;14.98;;;9.20;99.90;;;;;;5021790;28;20430;-84
2021/10/18 00:11:48;;;;;;;25.37;15.60;;;9.20;99.90;;;;;;5021500;28;20697;-85
2021/10/18 00:14:17;;;;;;;31.90;17.50;;;9.10;99.90;;;;;;5021988;28;20461;-85
2021/10/18 00:16:43;;;;;;;26.40;16.23;;;9.20;99.90;;;;;;5022433;28;20316;-84
2021/10/18 00:19:11;;;;;;;28.47;16.30;;;9.10;99.90;;;;;;5024107;28;20452;-84
2021/10/18 00:21:38;;;;;;;28.07;16.23;;;9.20;99.90;;;;;;5017364;28;20826;-84
2021/10/18 00:24:05;;;;;;;27.37;16.40;;;9.20;99.90;;;;;;5016494;28;20459;-84
2021/10/18 00:26:32;;;;;;;31.23;16.47;;;9.20;99.90;;;;;;5017018;28;20498;-84
2021/10/18 00:28:59;;;;;;;27.67;16.20;;;9.20;99.90;;;;;;5022096;28;20443;-85
2021/10/18 00:31:28;;;;;;;26.73;16.77;;;9.20;99.90;;;;;;5021017;28;20431;-85
2021/10/18 00:33:54;;;;;;;26.70;15.60;;;9.20;99.90;;;;;;5021530;28;20528;-85
2021/10/18 00:36:21;;;;;;;24.83;15.17;;;9.20;99.90;;;;;;5022236;28;20211;-85
2021/10/18 00:38:48;;;;;;;27.77;16.00;;;9.30;99.90;;;;;;5020111;28;20495;-85
2021/10/18 00:41:17;;;;;;;26.37;15.70;;;9.40;99.90;;;;;;5019915;28;20463;-84
2021/10/18 00:43:46;;;;;;;22.03;14.27;;;9.50;99.90;;;;;;5019960;28;20468;-84
2021/10/18 00:46:13;;;;;;;22.23;13.53;;;9.60;99.90;;;;;;5019280;28;20862;-83
2021/10/18 00:48:41;;;;;;;21.67;13.03;;;9.80;99.90;;;;;;5021329;28;20485;-86
2021/10/18 00:51:08;;;;;;;23.57;15.20;;;9.70;99.90;;;;;;5032591;28;20480;-85
2021/10/18 00:53:36;;;;;;;23.65;14.18;;;9.80;99.90;;;;;;5032329;28;20448;-83
2021/10/18 00:56:03;;;;;;;25.63;15.60;;;9.80;99.90;;;;;;5028039;28;20213;-84
2021/10/18 00:58:31;;;;;;;24.33;16.00;;;9.70;99.90;;;;;;5024849;28;20477;-84
2021/10/18 01:00:58;;;;;;;27.67;15.57;;;9.80;99.90;;;;;;5021698;28;20460;-84
2021/10/18 01:03:26;;;;;;;24.33;15.63;;;9.80;99.90;;;;;;5021052;28;20460;-83
2021/10/18 01:05:55;;;;;;;25.48;15.57;;;9.50;99.90;;;;;;5021170;28;20485;-84
2021/10/18 01:08:22;;;;;;;26.33;16.50;;;9.50;99.90;;;;;;5021009;28;20264;-83
2021/10/18 01:10:49;;;;;;;27.10;15.83;;;9.50;99.90;;;;;;5033756;28;20521;-83
2021/10/18 01:13:16;;;;;;;26.73;16.00;;;9.40;99.90;;;;;;5025248;28;20435;-84
2021/10/18 01:15:43;;;;;;;26.57;15.93;;;9.30;99.90;;;;;;5022062;28;20419;-85
2021/10/18 01:18:10;;;;;;;25.20;15.50;;;9.30;99.90;;;;;;5021434;28;20488;-84
2021/10/18 01:20:41;;;;;;;26.00;15.95;;;9.30;99.90;;;;;;5023160;28;20499;-84
2021/10/18 01:23:10;;;;;;;29.50;17.07;;;9.30;99.90;;;;;;5029913;28;20222;-84
2021/10/18 01:25:37;;;;;;;26.10;15.40;;;9.20;99.90;;;;;;5018025;28;20495;-84
2021/10/18 01:28:05;;;;;;;35.33;18.53;;;9.20;99.90;;;;;;5020797;28;20555;-84
2021/10/18 01:30:32;;;;;;;35.20;17.67;;;9.30;99.90;;;;;;5021389;28;20445;-84
2021/10/18 01:33:00;;;;;;;22.07;14.63;;;9.40;99.90;;;;;;5017979;28;20458;-84
2021/10/18 01:35:27;;;;;;;30.13;17.27;;;9.40;99.90;;;;;;5016265;28;20456;-84
2021/10/18 01:37:55;;;;;;;27.50;16.83;;;9.40;99.90;;;;;;5016464;28;20481;-84
2021/10/18 01:40:25;;;;;;;28.60;16.13;;;9.50;99.90;;;;;;5016770;28;20214;-84
2021/10/18 01:42:51;;;;;;;32.10;18.60;;;9.40;99.90;;;;;;5017027;28;20472;-84
2021/10/18 01:45:20;;;;;;;31.97;17.10;;;9.40;99.90;;;;;;5017965;28;20554;-84
2021/10/18 01:47:47;;;;;;;29.37;17.00;;;9.40;99.90;;;;;;5021403;28;20476;-84
2021/10/18 01:50:15;;;;;;;30.10;18.30;;;9.50;99.90;;;;;;5020248;28;20484;-84
2021/10/18 01:52:43;;;;;;;25.77;15.87;;;9.40;99.90;;;;;;5019401;28;20913;-85
2021/10/18 01:55:12;;;;;;;25.10;15.03;;;9.20;99.90;;;;;;5019938;28;20480;-84
2021/10/18 01:57:40;;;;;;;29.67;15.70;;;9.40;99.90;;;;;;5019353;28;20480;-84
2021/10/18 02:00:08;;;;;;;30.17;15.48;;;9.70;99.90;;;;;;5021911;28;20449;-84
2021/10/18 02:02:35;;;;;;;25.97;16.53;;;9.70;99.90;;;;;;5017214;28;20293;-84
2021/10/18 02:05:02;;;;;;;28.43;16.07;;;9.70;99.90;;;;;;5016460;28;20434;-85
2021/10/18 02:07:29;;;;;;;31.03;16.60;;;9.50;99.90;;;;;;5017562;28;20531;-84
2021/10/18 02:09:56;;;;;;;29.37;17.40;;;9.60;99.90;;;;;;5017248;28;20462;-85
2021/10/18 02:12:25;;;;;;;28.73;17.60;;;9.60;99.90;;;;;;5017585;28;20458;-85
2021/10/18 02:14:52;;;;;;;33.17;17.53;;;9.60;99.90;;;;;;5017354;28;20523;-85
2021/10/18 02:17:19;;;;;;;30.03;17.30;;;9.50;99.90;;;;;;5017617;28;20527;-85
2021/10/18 02:19:46;;;;;;;36.93;19.40;;;9.40;99.90;;;;;;5018085;28;20428;-85
2021/10/18 02:22:13;;;;;;;28.20;18.57;;;9.40;99.90;;;;;;5018346;28;20862;-85
2021/10/18 02:24:40;;;;;;;32.95;18.45;;;9.10;99.90;;;;;;5019235;28;20531;-85
2021/10/18 02:27:06;;;;;;;34.13;20.30;;;9.30;99.90;;;;;;5018677;28;20612;-85
2021/10/18 02:29:35;;;;;;;32.93;20.00;;;9.30;99.90;;;;;;5022510;28;20462;-85
2021/10/18 02:32:01;;;;;;;33.90;19.17;;;9.20;99.90;;;;;;5031846;28;20427;-85
2021/10/18 02:34:28;;;;;;;36.03;19.67;;;8.80;99.90;;;;;;5024692;28;20456;-85
2021/10/18 02:36:55;;;;;;;34.30;19.33;;;9.20;99.90;;;;;;5022249;28;20439;-85
2021/10/18 02:39:22;;;;;;;36.10;19.07;;;9.20;99.90;;;;;;5023941;28;20492;-85
2021/10/18 02:41:49;;;;;;;35.37;18.70;;;9.20;99.90;;;;;;5023272;28;20539;-85
2021/10/18 02:44:16;;;;;;;32.97;17.43;;;9.00;99.90;;;;;;5029499;28;20443;-85
2021/10/18 02:46:44;;;;;;;30.00;17.37;;;9.20;99.90;;;;;;5036801;28;20523;-85
2021/10/18 02:49:11;;;;;;;32.47;18.20;;;9.20;99.90;;;;;;5035211;28;20458;-85
2021/10/18 02:51:37;;;;;;;35.93;19.53;;;9.30;99.90;;;;;;5035919;28;20444;-85
2021/10/18 02:54:05;;;;;;;36.92;20.27;;;9.20;99.90;;;;;;5030263;28;20535;-85
2021/10/18 02:56:32;;;;;;;39.90;20.70;;;9.30;99.90;;;;;;5024332;28;20228;-85
2021/10/18 02:58:59;;;;;;;40.10;19.80;;;9.20;99.90;;;;;;5023956;28;20469;-85
2021/10/18 03:01:26;;;;;;;43.78;23.35;;;9.10;99.90;;;;;;5023158;28;20475;-85
2021/10/18 03:03:54;;;;;;;35.00;19.67;;;9.10;99.90;;;;;;5022635;28;20300;-85
2021/10/18 03:06:21;;;;;;;40.67;20.17;;;8.80;99.90;;;;;;5023466;28;21033;-85
2021/10/18 03:08:48;;;;;;;43.37;21.83;;;9.20;99.90;;;;;;5023743;28;20565;-85
2021/10/18 03:11:15;;;;;;;40.27;21.70;;;9.20;99.90;;;;;;5024587;28;20453;-85
2021/10/18 03:13:42;;;;;;;41.93;20.30;;;9.20;99.90;;;;;;5028477;28;20543;-85
2021/10/18 03:16:09;;;;;;;39.08;19.45;;;9.40;99.90;;;;;;5035401;28;20442;-83
2021/10/18 03:18:36;;;;;;;42.80;22.30;;;9.40;99.90;;;;;;5025840;28;20329;-85
2021/10/18 03:21:04;;;;;;;43.67;21.80;;;9.30;99.90;;;;;;5023001;28;20889;-85
2021/10/18 03:23:31;;;;;;;40.90;20.30;;;8.80;99.90;;;;;;5022972;28;20214;-85
2021/10/18 03:25:58;;;;;;;39.60;21.03;;;9.20;99.90;;;;;;5034042;28;20241;-85
2021/10/18 03:28:25;;;;;;;37.87;20.73;;;9.20;99.90;;;;;;5043988;23;20503;-77
2021/10/18 03:30:52;;;;;;;37.73;20.73;;;9.00;99.90;;;;;;5016895;28;20786;-77
2021/10/18 03:33:19;;;;;;;32.70;17.97;;;9.20;99.90;;;;;;5016406;28;20455;-77
2021/10/18 03:35:45;;;;;;;32.90;16.90;;;9.30;99.90;;;;;;5016513;28;20426;-77
2021/10/18 03:38:13;;;;;;;37.95;19.67;;;9.30;99.90;;;;;;5016296;28;20907;-78
2021/10/18 03:40:40;;;;;;;36.70;20.45;;;9.20;99.90;;;;;;5017276;28;20217;-77
2021/10/18 03:43:07;;;;;;;35.80;19.90;;;9.30;99.90;;;;;;5016472;28;20210;-77
2021/10/18 03:45:34;;;;;;;30.17;16.90;;;9.30;99.90;;;;;;5016284;28;20857;-77
2021/10/18 03:48:01;;;;;;;41.20;20.70;;;9.40;99.90;;;;;;5015433;28;20472;-77
2021/10/18 03:50:28;;;;;;;32.73;17.87;;;9.40;99.90;;;;;;5016478;28;20423;-76
2021/10/18 03:52:55;;;;;;;31.38;18.70;;;9.40;99.90;;;;;;5016349;28;20471;-76
2021/10/18 03:55:23;;;;;;;33.07;19.27;;;9.40;99.90;;;;;;5016190;28;20580;-76
2021/10/18 03:57:50;;;;;;;32.63;18.17;;;9.40;99.90;;;;;;5015816;28;20535;-77
2021/10/18 04:00:17;;;;;;;31.33;18.40;;;9.40;99.90;;;;;;5015892;28;20453;-77
2021/10/18 04:02:44;;;;;;;34.60;20.43;;;9.50;99.90;;;;;;5019202;28;20429;-77
2021/10/18 04:05:10;;;;;;;36.10;19.73;;;9.50;99.90;;;;;;5029006;28;20431;-76
2021/10/18 04:07:38;;;;;;;40.22;20.13;;;9.40;99.90;;;;;;5021918;28;20507;-76
2021/10/18 04:10:06;;;;;;;34.37;20.23;;;9.40;99.90;;;;;;5016111;28;20206;-77
2021/10/18 04:12:34;;;;;;;34.63;19.27;;;9.40;99.90;;;;;;5016425;28;20454;-77
2021/10/18 04:15:01;;;;;;;37.63;21.30;;;9.40;99.90;;;;;;5016244;28;20305;-76
2021/10/18 04:17:27;;;;;;;36.20;18.90;;;9.40;99.90;;;;;;5016213;28;20225;-77
2021/10/18 04:19:54;;;;;;;32.23;18.50;;;9.50;99.90;;;;;;5015679;28;20423;-78
2021/10/18 04:22:21;;;;;;;37.17;20.00;;;9.50;99.90;;;;;;5016134;28;20534;-77
2021/10/18 04:24:48;;;;;;;38.27;21.23;;;9.50;99.90;;;;;;5015858;28;20308;-77
2021/10/18 04:27:15;;;;;;;39.50;21.00;;;9.50;99.90;;;;;;5015428;28;20820;-77
2021/10/18 04:29:43;;;;;;;36.67;19.97;;;9.50;99.90;;;;;;5015879;28;20491;-77
2021/10/18 04:32:10;;;;;;;37.53;20.30;;;9.60;99.90;;;;;;5015634;28;20519;-77
2021/10/18 04:34:37;;;;;;;35.33;19.60;;;9.60;99.90;;;;;;5015860;28;20522;-78
2021/10/18 04:37:04;;;;;;;37.13;20.63;;;9.60;99.90;;;;;;5015923;28;20452;-78
2021/10/18 04:39:31;;;;;;;34.87;19.67;;;9.60;99.90;;;;;;5016089;28;20465;-78
2021/10/18 04:41:58;;;;;;;41.70;20.93;;;9.70;99.90;;;;;;5016431;28;20495;-77
2021/10/18 04:44:25;;;;;;;32.07;18.70;;;9.70;99.90;;;;;;5016150;28;20456;-77
2021/10/18 04:46:53;;;;;;;41.40;20.97;;;9.60;99.90;;;;;;5016956;28;20512;-77
2021/10/18 04:49:20;;;;;;;38.57;19.07;;;9.60;99.90;;;;;;5019649;28;20476;-78
2021/10/18 04:51:47;;;;;;;34.87;20.33;;;9.60;99.90;;;;;;5015580;28;20547;-76
2021/10/18 04:54:14;;;;;;;41.57;21.80;;;9.60;99.90;;;;;;5014844;28;20947;-77
2021/10/18 04:56:41;;;;;;;34.40;20.67;;;9.70;99.90;;;;;;5015695;28;20449;-77
2021/10/18 04:59:08;;;;;;;33.37;21.10;;;9.70;99.90;;;;;;5013861;28;20555;-77
2021/10/18 05:01:34;;;;;;;33.33;20.80;;;9.70;99.90;;;;;;5014685;28;20971;-77
2021/10/18 05:04:02;;;;;;;36.30;21.13;;;9.70;99.90;;;;;;5014746;28;20437;-78
2021/10/18 05:06:29;;;;;;;39.10;20.93;;;10.00;99.90;;;;;;5016023;28;20463;-77
2021/10/18 05:08:56;;;;;;;31.60;19.57;;;10.20;99.90;;;;;;5015456;28;20477;-78
2021/10/18 05:11:23;;;;;;;31.90;19.37;;;10.10;99.90;;;;;;5014850;28;20999;-77
2021/10/18 05:13:50;;;;;;;35.67;18.80;;;10.20;99.90;;;;;;5015409;28;20451;-78
2021/10/18 05:16:17;;;;;;;33.77;19.90;;;10.10;99.90;;;;;;5016730;28;20791;-78
2021/10/18 05:18:43;;;;;;;33.30;18.13;;;10.20;99.90;;;;;;5015373;28;20483;-77
2021/10/18 05:21:11;;;;;;;33.80;19.27;;;10.30;99.90;;;;;;5016077;28;20555;-78
2021/10/18 05:23:38;;;;;;;29.93;18.70;;;10.40;99.90;;;;;;5015953;28;20822;-78
2021/10/18 05:26:05;;;;;;;30.93;18.20;;;10.40;99.90;;;;;;5015643;28;20460;-78
2021/10/18 05:28:32;;;;;;;35.17;19.47;;;10.40;99.90;;;;;;5017509;28;20556;-77
2021/10/18 05:30:59;;;;;;;33.43;20.33;;;10.40;99.90;;;;;;5017488;28;20453;-78
2021/10/18 05:33:26;;;;;;;34.10;19.10;;;10.50;99.90;;;;;;5014879;28;20434;-77
2021/10/18 05:35:52;;;;;;;30.20;18.17;;;10.30;99.90;;;;;;5014830;28;20471;-78
2021/10/18 05:38:21;;;;;;;30.43;17.80;;;10.40;99.90;;;;;;5015251;28;20526;-77
2021/10/18 05:40:48;;;;;;;33.20;20.37;;;10.30;99.90;;;;;;5014372;28;20449;-77
2021/10/18 05:43:15;;;;;;;38.50;21.00;;;10.20;99.90;;;;;;5013810;28;20452;-77
2021/10/18 05:45:42;;;;;;;36.60;21.50;;;10.20;99.90;;;;;;5015097;28;20457;-78
2021/10/18 05:48:10;;;;;;;35.60;21.37;;;10.20;99.90;;;;;;5014406;28;20498;-77
2021/10/18 05:50:41;;;;;;;34.73;18.80;;;10.20;99.90;;;;;;5014952;28;20866;-78
2021/10/18 05:53:08;;;;;;;30.90;19.80;;;10.10;99.90;;;;;;5016523;28;20452;-77
2021/10/18 05:55:36;;;;;;;38.73;21.90;;;10.10;99.90;;;;;;5030935;28;20457;-77
2021/10/18 05:58:04;;;;;;;37.33;21.43;;;10.10;99.90;;;;;;5016325;28;20473;-78
2021/10/18 06:00:35;;;;;;;40.43;22.20;;;10.10;99.90;;;;;;5014975;28;20449;-78
2021/10/18 06:03:02;;;;;;;39.40;21.70;;;10.10;99.90;;;;;;5014018;28;20513;-76
2021/10/18 06:05:29;;;;;;;41.70;21.87;;;10.10;99.90;;;;;;5015198;28;20540;-78
2021/10/18 06:08:05;;;;;;;33.07;20.30;;;10.10;99.90;;;;;;5014388;28;20573;-76
2021/10/18 06:10:32;;;;;;;38.63;21.53;;;10.10;99.90;;;;;;5014570;28;20437;-77
2021/10/18 06:13:00;;;;;;;32.17;19.40;;;10.10;99.90;;;;;;5014595;28;20454;-77
2021/10/18 06:15:27;;;;;;;35.63;20.40;;;10.10;99.90;;;;;;5014397;28;20452;-78
2021/10/18 06:17:54;;;;;;;40.30;21.50;;;10.20;99.90;;;;;;5014465;28;20469;-77
2021/10/18 06:20:21;;;;;;;38.37;19.90;;;10.20;99.90;;;;;;5015559;28;20805;-77
2021/10/18 06:22:48;;;;;;;36.63;21.60;;;10.20;99.90;;;;;;5013859;28;20464;-77
2021/10/18 06:25:15;;;;;;;36.40;21.90;;;10.20;99.90;;;;;;5014021;28;20977;-77
2021/10/18 06:27:42;;;;;;;45.30;22.10;;;10.10;99.90;;;;;;5013489;28;20503;-77
2021/10/18 06:30:11;;;;;;;37.80;21.77;;;10.10;99.90;;;;;;5017285;28;20438;-77
2021/10/18 06:32:38;;;;;;;33.63;20.70;;;10.20;99.90;;;;;;5020063;28;20453;-77
2021/10/18 06:35:05;;;;;;;43.73;23.10;;;10.10;99.90;;;;;;5015602;28;20453;-77
2021/10/18 06:37:33;;;;;;;32.47;21.20;;;10.20;99.90;;;;;;5014790;28;20477;-77
2021/10/18 06:40:00;;;;;;;38.10;20.90;;;10.20;99.90;;;;;;5013672;28;20436;-75
2021/10/18 06:42:27;;;;;;;37.33;22.80;;;10.20;99.90;;;;;;5013741;28;20862;-77
2021/10/18 06:44:54;;;;;;;46.53;22.97;;;10.20;99.90;;;;;;5013546;28;20797;-77
2021/10/18 06:47:22;;;;;;;37.47;21.57;;;10.20;99.90;;;;;;5013626;28;20847;-77
2021/10/18 06:49:49;;;;;;;38.57;20.80;;;10.20;99.90;;;;;;5014365;28;20453;-77
2021/10/18 06:52:16;;;;;;;37.50;20.70;;;10.20;99.90;;;;;;5014586;28;20464;-77
2021/10/18 06:54:43;;;;;;;37.83;22.10;;;10.30;99.90;;;;;;5013797;28;20493;-77
2021/10/18 06:57:10;;;;;;;38.93;21.30;;;10.30;99.90;;;;;;5018834;28;20446;-77
2021/10/18 06:59:36;;;;;;;36.37;21.20;;;10.30;99.90;;;;;;5013617;28;20470;-77
2021/10/18 07:02:03;;;;;;;31.50;18.40;;;10.30;99.90;;;;;;5013819;28;20942;-78
2021/10/18 07:04:33;;;;;;;30.43;18.73;;;10.40;99.90;;;;;;5014303;28;20457;-77
2021/10/18 07:07:02;;;;;;;42.53;21.53;;;10.40;99.90;;;;;;5014778;28;20849;-77
2021/10/18 07:09:29;;;;;;;35.80;20.30;;;10.50;99.90;;;;;;5014484;28;20457;-77
2021/10/18 07:11:56;;;;;;;35.00;19.70;;;10.50;99.90;;;;;;5013683;28;20461;-77
2021/10/18 07:14:23;;;;;;;34.97;21.27;;;10.50;99.90;;;;;;5014272;28;20457;-77
2021/10/18 07:16:50;;;;;;;34.30;19.63;;;10.50;99.90;;;;;;5019509;28;20556;-77
2021/10/18 07:19:17;;;;;;;27.83;17.47;;;10.50;99.90;;;;;;5021413;28;20556;-77
2021/10/18 07:21:46;;;;;;;27.60;17.70;;;10.50;99.90;;;;;;5016966;28;20926;-77
2021/10/18 07:24:16;;;;;;;30.13;18.43;;;10.50;99.90;;;;;;5016733;28;20528;-77
2021/10/18 07:26:43;;;;;;;26.83;18.10;;;10.50;99.90;;;;;;5017789;28;20798;-77
2021/10/18 07:29:10;;;;;;;28.50;17.40;;;10.50;99.90;;;;;;5018186;28;20483;-77
2021/10/18 07:31:37;;;;;;;23.57;16.07;;;10.60;99.90;;;;;;5019924;28;20854;-77
2021/10/18 07:34:11;;;;;;;23.80;16.37;;;10.70;99.90;;;;;;5018148;28;20536;-77
2021/10/18 07:36:46;;;;;;;22.70;16.00;;;10.60;99.90;;;;;;5017735;28;20444;-77
2021/10/18 07:39:15;;;;;;;25.63;17.97;;;10.60;99.90;;;;;;5017420;28;20482;-77
2021/10/18 07:41:42;;;;;;;26.67;16.90;;;10.40;99.90;;;;;;5017312;28;20981;-77
2021/10/18 07:44:09;;;;;;;26.80;17.13;;;10.40;99.90;;;;;;5022562;28;20406;-77
2021/10/18 07:46:35;;;;;;;23.10;16.47;;;10.50;99.90;;;;;;5030835;28;20540;-77
2021/10/18 07:49:02;;;;;;;29.57;17.70;;;10.50;99.90;;;;;;5017726;28;20473;-78
2021/10/18 07:51:29;;;;;;;25.40;17.53;;;10.70;99.90;;;;;;5017920;28;20460;-78
2021/10/18 07:53:56;;;;;;;26.47;16.97;;;10.70;99.90;;;;;;5017862;28;20467;-78
2021/10/18 07:56:24;;;;;;;29.33;17.17;;;10.70;99.90;;;;;;5016551;28;20777;-77
2021/10/18 07:58:51;;;;;;;27.30;18.80;;;10.80;99.90;;;;;;5015955;28;20469;-77
2021/10/18 08:01:18;;;;;;;28.60;17.60;;;10.80;99.90;;;;;;5016741;28;20453;-78
2021/10/18 08:03:45;;;;;;;28.67;18.70;;;10.90;99.90;;;;;;5017157;28;20453;-77
2021/10/18 08:06:11;;;;;;;26.37;17.97;;;10.70;99.90;;;;;;5016452;28;20464;-78
2021/10/18 08:08:44;;;;;;;29.70;19.03;;;10.70;99.90;;;;;;5017744;28;20567;-77
2021/10/18 08:11:11;;;;;;;28.20;18.60;;;10.60;99.90;;;;;;5017640;28;20442;-78
2021/10/18 08:13:40;;;;;;;27.03;17.97;;;10.70;99.90;;;;;;5017482;28;20453;-78
2021/10/18 08:16:07;;;;;;;29.80;18.97;;;10.80;99.90;;;;;;5017416;28;20457;-77
2021/10/18 08:18:34;;;;;;;28.63;18.40;;;10.80;99.90;;;;;;5015873;28;20469;-77
2021/10/18 08:21:00;;;;;;;30.67;21.30;;;10.70;99.90;;;;;;5016954;28;20453;-78
2021/10/18 08:23:27;;;;;;;30.00;18.70;;;10.70;99.90;;;;;;5018182;28;20451;-77
2021/10/18 08:25:54;;;;;;;27.93;19.10;;;10.90;99.90;;;;;;5017834;28;20457;-77
2021/10/18 08:28:21;;;;;;;27.23;18.00;;;10.90;99.90;;;;;;5017290;28;20472;-77
2021/10/18 08:30:49;;;;;;;26.53;19.00;;;10.90;99.90;;;;;;5016840;28;20467;-78
2021/10/18 08:33:16;;;;;;;31.43;19.47;;;10.80;99.90;;;;;;5017211;28;20463;-77
2021/10/18 08:35:43;;;;;;;27.27;18.37;;;10.90;99.90;;;;;;5017497;28;20450;-77
2021/10/18 08:38:20;;;;;;;28.97;19.20;;;11.00;99.90;;;;;;5017014;28;20501;-77
2021/10/18 08:41:00;;;;;;;30.83;18.13;;;10.90;99.90;;;;;;5017058;28;20485;-77
2021/10/18 08:46:11;;;;;;;30.93;17.97;;;10.80;99.90;;;;;;5015752;28;20477;-77
2021/10/18 08:48:39;;;;;;;27.87;18.73;;;11.00;99.90;;;;;;5015078;28;20528;-77
2021/10/18 08:51:06;;;;;;;27.67;17.10;;;11.00;99.90;;;;;;5015366;28;20435;-77
2021/10/18 08:53:33;;;;;;;27.13;18.23;;;10.90;99.90;;;;;;5015107;28;21061;-77
2021/10/18 08:56:00;;;;;;;25.50;17.80;;;10.70;99.90;;;;;;5017108;28;20481;-77
2021/10/18 08:58:27;;;;;;;25.67;16.80;;;10.90;99.90;;;;;;5015733;28;20476;-76
2021/10/18 09:00:53;;;;;;;26.93;19.43;;;10.90;99.90;;;;;;5015414;28;20548;-77
2021/10/18 09:03:24;;;;;;;28.57;19.07;;;10.80;99.90;;;;;;5014630;28;20556;-76
2021/10/18 09:05:52;;;;;;;31.17;19.90;;;10.70;99.90;;;;;;5015830;28;20556;-76
2021/10/18 09:08:34;;;;;;;29.97;18.97;;;10.60;99.90;;;;;;5016394;28;20500;-78
2021/10/18 09:11:04;;;;;;;26.43;18.33;;;10.70;99.90;;;;;;5017105;28;20433;-77
2021/10/18 09:13:31;;;;;;;26.23;18.43;;;10.90;99.90;;;;;;5015753;28;20544;-78
2021/10/18 09:15:57;;;;;;;30.90;19.50;;;10.90;99.90;;;;;;5014975;28;20467;-77
2021/10/18 09:18:26;;;;;;;32.47;20.60;;;10.80;99.90;;;;;;5015220;28;20492;-77
2021/10/18 09:20:52;;;;;;;29.63;20.57;;;10.80;99.90;;;;;;5014797;28;20551;-76
2021/10/18 09:23:25;;;;;;;29.70;19.30;;;11.00;99.90;;;;;;5015228;28;20453;-78
2021/10/18 09:25:53;;;;;;;33.60;21.43;;;11.00;99.90;;;;;;5015973;28;20445;-77
2021/10/18 09:28:24;;;;;;;31.80;20.23;;;11.00;99.90;;;;;;5101284;23;20448;-86
2021/10/18 09:30:52;;;;;;;24.37;16.87;;;11.20;99.90;;;;;;5021668;28;20427;-86
2021/10/18 09:33:23;;;;;;;30.17;20.57;;;11.10;99.90;;;;;;5022187;28;20823;-85
2021/10/18 09:35:51;;;;;;;29.23;20.03;;;11.10;99.90;;;;;;5021648;28;20943;-85
2021/10/18 09:38:20;;;;;;;25.23;17.87;;;11.00;99.90;;;;;;5021930;28;20589;-85
2021/10/18 09:40:48;;;;;;;27.87;18.60;;;11.10;99.90;;;;;;5020813;28;20457;-85
2021/10/18 09:43:20;;;;;;;28.70;18.67;;;10.90;99.90;;;;;;5022118;28;20453;-85
2021/10/18 09:46:16;;;;;;;27.97;19.90;;;11.10;99.90;;;;;;5021492;28;20434;-85
2021/10/18 10:53:30;;;;;;;24.17;16.80;;;12.20;99.90;;;;;;5017341;28;20923;-85
2021/10/18 10:56:00;;;;;;;25.57;17.40;;;12.30;99.90;;;;;;5021583;28;20426;-86
2021/10/18 10:58:48;;;;;;;24.40;17.00;;;12.50;99.90;;;;;;5031373;28;20473;-86
2021/10/18 11:01:42;;;;;;;25.17;17.47;;;12.70;99.90;;;;;;5022127;28;20409;-85
2021/10/18 11:04:54;;;;;;;27.93;18.63;;;12.60;99.90;;;;;;5021410;28;20461;-85
2021/10/18 11:07:53;;;;;;;26.07;17.90;;;12.40;99.90;;;;;;5020758;28;20416;-87
2021/10/18 11:10:23;;;;;;;26.50;18.00;;;12.40;99.90;;;;;;5029261;28;20511;-86
2021/10/18 11:12:52;;;;;;;26.67;18.30;;;12.50;99.90;;;;;;5022567;28;20454;-86
2021/10/18 11:15:22;;;;;;;25.03;18.57;;;12.40;99.90;;;;;;5023020;28;20438;-86
2021/10/18 11:17:50;;;;;;;22.30;16.70;;;12.40;99.90;;;;;;5023853;28;20417;-86
2021/10/18 11:20:19;;;;;;;25.20;17.40;;;12.40;99.90;;;;;;5023858;28;20762;-86
2021/10/18 11:22:49;;;;;;;25.13;17.53;;;12.60;99.90;;;;;;5022695;28;20450;-86
2021/10/18 11:25:18;;;;;;;23.33;16.53;;;12.70;99.90;;;;;;5022158;28;20449;-86
2021/10/18 11:27:50;;;;;;;23.63;16.63;;;12.60;99.90;;;;;;5023427;28;20460;-87
2021/10/18 11:30:20;;;;;;;24.70;16.03;;;12.70;99.90;;;;;;5021344;28;20547;-86
2021/10/18 11:32:55;;;;;;;24.10;16.93;;;12.80;99.90;;;;;;5022106;28;20548;-86
2021/10/18 11:35:22;;;;;;;31.50;18.60;;;12.80;99.90;;;;;;5023619;28;20821;-87
2021/10/18 11:37:58;;;;;;;20.80;14.47;;;12.90;99.90;;;;;;5026742;28;20460;-85
2021/10/18 11:40:28;;;;;;;25.40;17.03;;;13.00;99.90;;;;;;5035579;28;20430;-86
2021/10/18 11:42:56;;;;;;;23.50;16.80;;;13.00;99.90;;;;;;5031594;28;20550;-86
2021/10/18 11:45:27;;;;;;;23.47;16.17;;;13.00;99.90;;;;;;5025895;28;20515;-85
2021/10/18 11:48:02;;;;;;;22.10;17.47;;;13.10;99.90;;;;;;5026520;28;20409;-87
2021/10/18 11:50:29;;;;;;;20.40;14.10;;;13.00;99.90;;;;;;5027153;28;20437;-86
2021/10/18 11:52:58;;;;;;;26.27;17.40;;;13.00;99.90;;;;;;5024868;28;20432;-86
2021/10/18 11:55:28;;;;;;;21.70;15.23;;;13.10;99.90;;;;;;5026456;28;20881;-89
2021/10/18 11:57:59;;;;;;;20.53;16.23;;;13.10;99.90;;;;;;5024314;28;20510;-87
2021/10/18 12:00:30;;;;;;;24.17;16.27;;;13.10;99.90;;;;;;5022545;28;20449;-86
2021/10/18 12:03:01;;;;;;;21.53;15.87;;;13.00;99.90;;;;;;5027925;28;20446;-85
2021/10/18 12:05:37;;;;;;;22.20;15.77;;;13.10;99.90;;;;;;5024479;28;20865;-86
2021/10/18 12:08:05;;;;;;;25.47;18.37;;;13.30;99.90;;;;;;5023051;28;20490;-87
2021/10/18 12:10:33;;;;;;;22.00;15.47;;;13.30;99.90;;;;;;5024891;28;20454;-85
2021/10/18 12:13:22;;;;;;;25.67;16.10;;;13.30;99.90;;;;;;5025959;28;20531;-84
2021/10/18 12:15:59;;;;;;;29.03;18.40;;;13.20;99.90;;;;;;5026584;28;20427;-86
2021/10/18 12:18:28;;;;;;;22.93;16.00;;;13.20;99.90;;;;;;5026628;28;20833;-86
2021/10/18 12:20:56;;;;;;;21.27;16.40;;;13.10;99.90;;;;;;5025494;28;20517;-86
2021/10/18 12:23:26;;;;;;;21.27;15.77;;;13.10;99.90;;;;;;5024584;28;20479;-86
2021/10/18 12:26:13;;;;;;;25.40;17.13;;;13.20;99.90;;;;;;5029345;28;20450;-86
2021/10/18 12:28:46;;;;;;;18.80;15.20;;;13.40;99.90;;;;;;5028230;28;20521;-86
2021/10/18 12:31:32;;;;;;;24.50;16.90;;;13.40;99.90;;;;;;5025842;28;20409;-86
2021/10/18 12:34:02;;;;;;;23.37;18.07;;;13.50;99.90;;;;;;5025851;28;20474;-85
2021/10/18 12:36:29;;;;;;;20.67;16.50;;;13.50;99.90;;;;;;5024961;28;20485;-85
2021/10/18 12:38:56;;;;;;;26.90;17.17;;;13.60;99.90;;;;;;5025277;28;20470;-86
2021/10/18 12:41:24;;;;;;;22.70;16.40;;;13.80;99.90;;;;;;5030773;28;20510;-86
2021/10/18 12:43:51;;;;;;;21.47;17.00;;;13.80;99.90;;;;;;5036128;28;20574;-86
2021/10/18 12:46:20;;;;;;;22.50;17.63;;;13.90;99.90;;;;;;5029200;28;20478;-86
2021/10/18 12:49:01;;;;;;;23.97;17.70;;;13.90;99.90;;;;;;5026711;28;20471;-86
2021/10/18 12:51:41;;;;;;;20.80;16.63;;;14.00;99.90;;;;;;5033678;28;20435;-86
2021/10/18 12:54:27;;;;;;;26.27;18.07;;;14.10;99.90;;;;;;5033198;28;20473;-86
2021/10/18 12:57:13;;;;;;;22.97;16.73;;;14.10;99.90;;;;;;5033695;28;20427;-85
2021/10/18 13:00:01;;;;;;;20.43;16.63;;;14.20;99.90;;;;;;5036097;28;20473;-86
2021/10/18 13:02:30;;;;;;;22.30;16.27;;;14.30;99.90;;;;;;5031137;28;20500;-86
2021/10/18 13:05:09;;;;;;;21.50;16.20;;;14.40;99.90;;;;;;5026723;28;20494;-87
2021/10/18 13:07:37;;;;;;;22.13;14.50;;;14.30;99.90;;;;;;5027428;28;20514;-86
2021/10/18 13:10:05;;;;;;;21.00;15.17;;;14.40;99.90;;;;;;5024154;28;20484;-86
2021/10/18 13:12:32;;;;;;;19.77;16.20;;;14.40;99.90;;;;;;5023225;28;20468;-87
2021/10/18 13:14:59;;;;;;;19.23;14.67;;;14.30;99.90;;;;;;5025128;28;20440;-86
2021/10/18 13:17:27;;;;;;;21.97;16.20;;;14.30;99.90;;;;;;5029262;28;20449;-87
2021/10/18 13:19:55;;;;;;;22.77;15.33;;;14.40;99.90;;;;;;5031647;28;20480;-87
2021/10/18 13:22:23;;;;;;;21.70;15.63;;;14.40;99.90;;;;;;5028527;28;20497;-87
2021/10/18 13:24:50;;;;;;;18.47;14.43;;;14.30;99.90;;;;;;5027815;28;20470;-87
2021/10/18 13:27:18;;;;;;;21.83;16.20;;;14.30;99.90;;;;;;5026689;28;20790;-86
2021/10/18 13:29:45;;;;;;;19.90;15.30;;;14.50;99.90;;;;;;5027362;28;20553;-86
2021/10/18 13:32:12;;;;;;;20.67;16.00;;;14.50;99.90;;;;;;5027217;28;20454;-87
2021/10/18 13:34:41;;;;;;;20.03;16.13;;;14.40;99.90;;;;;;5024803;28;20497;-86
2021/10/18 13:37:09;;;;;;;20.17;15.80;;;14.60;99.90;;;;;;5026588;28;20480;-86
2021/10/18 13:39:38;;;;;;;20.00;15.43;;;14.60;99.90;;;;;;5033532;28;20476;-86
2021/10/18 13:42:05;;;;;;;21.30;17.63;;;14.70;99.90;;;;;;5033066;28;20446;-86
2021/10/18 13:44:33;;;;;;;21.00;15.60;;;14.70;99.90;;;;;;5026175;28;20463;-86
2021/10/18 13:46:59;;;;;;;20.40;14.03;;;14.70;99.90;;;;;;5024140;28;20785;-86